Time;durP1;ratioP1;P1;durP2;ratioP2;P2;SDS_P1;SDS_P2;PMS_P1;PMS_P2;Temp;Humidity;BMP_temperature;BMP_pressure;BME280_temperature;BME280_humidity;BME280_pressure;Samples;Min_cycle;Max_cycle;Signal;HPM_P1;HPM_P2
2022/04/10 00:01:41;;;;;;;12.77;7.05;;;;;;;0.08;100.00;101691.25;5351322;27;20033;-63
2022/04/10 00:04:12;;;;;;;13.98;7.43;;;;;;;0.18;100.00;101693.66;5341499;27;20022;-63
2022/04/10 00:06:43;;;;;;;15.13;7.45;;;;;;;0.18;100.00;101696.28;5339204;27;20039;-63
2022/04/10 00:09:14;;;;;;;13.95;7.50;;;;;;;0.15;100.00;101685.88;5347535;27;20444;-63
2022/04/10 00:11:46;;;;;;;13.82;7.45;;;;;;;0.21;100.00;101697.13;5344824;27;20054;-64
2022/04/10 00:14:17;;;;;;;15.30;7.70;;;;;;;0.14;100.00;101688.50;5350229;27;20813;-63
2022/04/10 00:16:48;;;;;;;15.57;7.57;;;;;;;0.15;100.00;101695.47;5353921;27;20034;-63
2022/04/10 00:19:19;;;;;;;13.25;8.10;;;;;;;0.21;100.00;101686.63;5353075;27;20110;-64
2022/04/10 00:21:51;;;;;;;14.13;7.95;;;;;;;0.14;100.00;101692.00;5346676;27;20027;-63
2022/04/10 00:24:25;;;;;;;14.40;8.32;;;;;;;0.11;100.00;101689.41;5354927;27;20075;-64
2022/04/10 00:26:57;;;;;;;14.02;8.18;;;;;;;0.08;100.00;101689.50;5345434;27;20034;-63
2022/04/10 00:29:28;;;;;;;14.68;8.10;;;;;;;0.11;100.00;101692.03;5340714;27;20071;-63
2022/04/10 00:31:59;;;;;;;15.50;8.32;;;;;;;0.13;100.00;101687.63;5341606;27;20384;-63
2022/04/10 00:34:30;;;;;;;17.85;8.77;;;;;;;0.10;100.00;101692.94;5345582;27;20560;-63
2022/04/10 00:37:02;;;;;;;15.80;9.48;;;;;;;0.12;100.00;101692.94;5344360;27;20026;-63
2022/04/10 00:39:33;;;;;;;18.85;9.57;;;;;;;0.10;100.00;101684.22;5343108;27;20035;-63
2022/04/10 00:42:05;;;;;;;17.92;9.27;;;;;;;0.10;100.00;101682.47;5348400;27;20030;-63
2022/04/10 00:44:36;;;;;;;18.02;10.02;;;;;;;0.04;100.00;101677.34;5343051;27;20042;-63
2022/04/10 00:47:10;;;;;;;16.80;9.25;;;;;;;0.08;100.00;101680.78;5338797;27;20045;-63
2022/04/10 00:49:41;;;;;;;18.75;9.70;;;;;;;0.01;100.00;101677.38;5357816;27;20077;-63
2022/04/10 00:52:14;;;;;;;17.48;10.05;;;;;;;-0.02;100.00;101670.44;5344630;27;20494;-63
2022/04/10 00:54:45;;;;;;;18.83;10.75;;;;;;;0.02;100.00;101667.75;5340357;27;20419;-63
2022/04/10 00:57:17;;;;;;;19.85;10.60;;;;;;;0.04;100.00;101671.19;5343567;27;20027;-64
2022/04/10 00:59:49;;;;;;;19.20;10.77;;;;;;;-0.02;100.00;101672.19;5341055;27;20512;-63
2022/04/10 01:02:20;;;;;;;19.17;11.32;;;;;;;0.01;100.00;101676.53;5342715;27;21209;-63
2022/04/10 01:04:51;;;;;;;18.38;11.30;;;;;;;-0.03;100.00;101673.94;5344300;27;20015;-63
2022/04/10 01:07:23;;;;;;;18.98;11.00;;;;;;;-0.06;100.00;101666.16;5345139;27;20079;-63
2022/04/10 01:09:55;;;;;;;19.63;11.45;;;;;;;-0.03;100.00;101681.81;5348552;27;20023;-63
2022/04/10 01:12:26;;;;;;;20.83;11.50;;;;;;;-0.04;100.00;101677.47;5342039;27;21131;-63
2022/04/10 01:14:59;;;;;;;21.52;11.27;;;;;;;0.00;100.00;101680.91;5354604;27;20091;-63
2022/04/10 01:17:31;;;;;;;23.98;12.32;;;;;;;0.03;100.00;101678.22;5348191;27;20088;-63
2022/04/10 01:20:03;;;;;;;25.75;12.02;;;;;;;0.10;100.00;101676.34;5345688;27;20054;-63
2022/04/10 01:22:35;;;;;;;19.10;11.52;;;;;;;0.14;100.00;101673.63;5346737;27;20023;-63
2022/04/10 01:25:08;;;;;;;21.00;11.88;;;;;;;0.22;100.00;101675.25;5346348;27;20030;-63
2022/04/10 01:27:40;;;;;;;20.20;12.50;;;;;;;0.21;100.00;101676.13;5349878;27;20022;-63
2022/04/10 01:30:12;;;;;;;24.70;12.50;;;;;;;0.27;100.00;101684.75;5345001;27;20143;-63
2022/04/10 01:32:44;;;;;;;19.95;12.32;;;;;;;0.27;100.00;101683.88;5343314;27;20130;-63
2022/04/10 01:35:17;;;;;;;22.63;11.63;;;;;;;0.27;100.00;101679.50;5352217;27;20055;-63
2022/04/10 01:37:49;;;;;;;23.67;13.10;;;;;;;0.33;100.00;101681.13;5354562;27;20026;-63
2022/04/10 01:40:21;;;;;;;19.45;13.00;;;;;;;0.29;100.00;101677.72;5343759;27;20459;-63
2022/04/10 01:42:53;;;;;;;19.77;12.90;;;;;;;0.30;100.00;101678.56;5346797;27;20115;-63
2022/04/10 01:45:24;;;;;;;19.70;12.40;;;;;;;0.34;100.00;101688.09;5345844;27;20035;-63
2022/04/10 01:47:56;;;;;;;23.15;12.75;;;;;;;0.28;100.00;101680.38;5348063;27;20034;-63
2022/04/10 01:50:27;;;;;;;21.98;12.77;;;;;;;0.26;100.00;101684.78;5358222;27;20030;-63
2022/04/10 01:52:58;;;;;;;20.85;13.20;;;;;;;0.28;100.00;101683.00;5342443;27;20532;-63
2022/04/10 01:55:29;;;;;;;23.48;13.52;;;;;;;0.21;100.00;101686.63;5348688;27;20503;-63
2022/04/10 01:58:01;;;;;;;22.23;13.05;;;;;;;0.19;100.00;101692.78;5347421;27;20030;-63
2022/04/10 02:00:32;;;;;;;22.70;13.10;;;;;;;0.13;100.00;101695.50;5344295;27;20609;-63
2022/04/10 02:03:04;;;;;;;20.33;13.38;;;;;;;0.14;100.00;101699.88;5345169;27;20026;-63
2022/04/10 02:05:35;;;;;;;22.85;13.35;;;;;;;0.11;100.00;101696.44;5356363;27;20087;-63
2022/04/10 02:08:07;;;;;;;21.45;13.48;;;;;;;0.10;100.00;101705.22;5354803;27;20864;-64
2022/04/10 02:10:38;;;;;;;19.52;12.82;;;;;;;0.04;100.00;101700.06;5344008;27;20729;-64
2022/04/10 02:13:09;;;;;;;23.58;13.30;;;;;;;-0.02;100.00;101703.66;5349599;27;20031;-64
2022/04/10 02:15:41;;;;;;;19.55;12.35;;;;;;;0.02;100.00;101709.72;5342909;27;20034;-63
2022/04/10 02:18:12;;;;;;;24.02;13.63;;;;;;;-0.04;100.00;101694.97;5346453;27;20027;-63
2022/04/10 02:20:43;;;;;;;24.35;13.52;;;;;;;-0.06;100.00;101708.13;5350909;27;20030;-63
2022/04/10 02:23:14;;;;;;;18.75;12.70;;;;;;;-0.12;100.00;101696.88;5347796;27;20042;-63
2022/04/10 02:25:46;;;;;;;19.92;12.88;;;;;;;-0.15;100.00;101702.16;5344492;27;20035;-63
2022/04/10 02:28:17;;;;;;;20.55;13.07;;;;;;;-0.17;100.00;101699.59;5348790;27;20418;-63
2022/04/10 02:30:48;;;;;;;23.77;13.98;;;;;;;-0.21;100.00;101704.03;5350016;27;20037;-63
2022/04/10 02:33:20;;;;;;;26.65;13.93;;;;;;;-0.15;100.00;101699.53;5345729;27;20030;-63
2022/04/10 02:35:51;;;;;;;20.38;13.10;;;;;;;-0.19;100.00;101704.00;5342050;27;20285;-64
2022/04/10 02:38:22;;;;;;;21.08;13.30;;;;;;;-0.24;100.00;101703.22;5343985;27;20718;-63
2022/04/10 02:40:53;;;;;;;21.15;13.15;;;;;;;-0.30;100.00;101705.94;5344540;27;20041;-63
2022/04/10 02:43:25;;;;;;;23.80;13.85;;;;;;;-0.33;100.00;101698.13;5344593;27;20034;-63
2022/04/10 02:45:56;;;;;;;21.17;13.45;;;;;;;-0.33;100.00;101703.34;5341278;27;20046;-63
2022/04/10 02:48:27;;;;;;;21.30;13.50;;;;;;;-0.31;100.00;101712.06;5341672;27;20035;-63
2022/04/10 02:50:59;;;;;;;22.30;13.77;;;;;;;-0.41;100.00;101720.06;5345543;27;20038;-63
2022/04/10 02:53:30;;;;;;;20.00;14.20;;;;;;;-0.43;100.00;101710.53;5345180;27;20476;-63
2022/04/10 02:56:02;;;;;;;20.67;13.63;;;;;;;-0.48;100.00;101715.84;5343051;27;21007;-63
2022/04/10 02:58:33;;;;;;;23.05;14.73;;;;;;;-0.42;100.00;101728.00;5358338;27;20087;-63
2022/04/10 03:01:04;;;;;;;20.00;13.82;;;;;;;-0.46;100.00;101718.44;5353359;27;20101;-63
2022/04/10 03:03:35;;;;;;;20.80;13.55;;;;;;;-0.51;100.00;101720.28;5344597;27;20484;-63
2022/04/10 03:06:07;;;;;;;22.60;14.75;;;;;;;-0.50;100.00;101719.38;5343490;27;20041;-64
2022/04/10 03:08:38;;;;;;;21.00;13.82;;;;;;;-0.51;100.00;101726.38;5346004;27;20477;-63
2022/04/10 03:11:09;;;;;;;22.15;13.68;;;;;;;-0.49;100.00;101724.59;5343037;27;20039;-63
2022/04/10 03:13:40;;;;;;;21.35;13.77;;;;;;;-0.58;100.00;101721.25;5344226;27;20515;-63
2022/04/10 03:16:12;;;;;;;24.95;14.05;;;;;;;-0.57;100.00;101723.88;5321646;27;20068;-63
2022/04/10 03:18:43;;;;;;;21.75;14.00;;;;;;;-0.64;100.00;101728.31;5341254;27;20038;-63
2022/04/10 03:21:14;;;;;;;19.58;13.60;;;;;;;-0.66;100.00;101730.09;5341871;27;20058;-63
2022/04/10 03:23:46;;;;;;;23.33;13.75;;;;;;;-0.67;100.00;101728.38;5345472;27;20559;-63
2022/04/10 03:26:17;;;;;;;21.75;13.95;;;;;;;-0.72;100.00;101724.97;5346272;27;20038;-63
2022/04/10 03:28:48;;;;;;;20.88;13.98;;;;;;;-0.77;100.00;101734.63;5344827;27;20635;-63
2022/04/10 03:31:21;;;;;;;21.92;13.98;;;;;;;-0.81;100.00;101732.94;5342426;27;21025;-63
2022/04/10 03:33:52;;;;;;;21.33;13.15;;;;;;;-0.76;100.00;101743.38;5347906;27;20117;-63
2022/04/10 03:36:23;;;;;;;25.80;14.20;;;;;;;-0.74;100.00;101742.47;5342715;27;20030;-63
2022/04/10 03:38:54;;;;;;;19.58;13.93;;;;;;;-0.78;100.00;101740.78;5337734;27;20149;-63
2022/04/10 03:41:26;;;;;;;20.45;13.27;;;;;;;-0.78;100.00;101732.91;5353044;27;20061;-63
2022/04/10 03:43:57;;;;;;;22.42;13.93;;;;;;;-0.81;100.00;101746.91;5343320;27;20479;-63
2022/04/10 03:46:28;;;;;;;20.05;13.60;;;;;;;-0.91;100.00;101742.72;5341647;27;20072;-63
2022/04/10 03:49:00;;;;;;;23.48;13.95;;;;;;;-0.93;100.00;101746.25;5346944;27;20031;-63
2022/04/10 03:51:31;;;;;;;20.55;13.20;;;;;;;-0.89;100.00;101740.06;5344161;27;20039;-63
2022/04/10 03:54:02;;;;;;;19.85;14.00;;;;;;;-0.94;100.00;101747.13;5343004;27;20440;-63
2022/04/10 03:56:33;;;;;;;17.90;13.40;;;;;;;-0.92;100.00;101755.81;5342737;27;20504;-63
2022/04/10 03:59:05;;;;;;;19.52;13.25;;;;;;;-0.99;100.00;101750.66;5351908;27;20064;-63
2022/04/10 04:01:36;;;;;;;22.05;13.65;;;;;;;-1.03;100.00;101751.59;5341289;27;20121;-63
2022/04/10 04:04:07;;;;;;;25.77;14.35;;;;;;;-0.96;100.00;101757.63;5346192;27;20039;-63
2022/04/10 04:06:38;;;;;;;22.00;13.95;;;;;;;-1.07;100.00;101757.78;5341632;27;20102;-63
2022/04/10 04:09:10;;;;;;;24.60;13.57;;;;;;;-1.07;100.00;101757.78;5343739;27;20026;-63
2022/04/10 04:11:41;;;;;;;17.90;13.32;;;;;;;-1.00;100.00;101758.53;5340842;27;20086;-63
2022/04/10 04:14:13;;;;;;;22.33;13.10;;;;;;;-1.00;100.00;101763.78;5338619;27;20053;-63
2022/04/10 04:16:44;;;;;;;24.67;13.30;;;;;;;-1.00;100.00;101763.78;5346001;27;20026;-63
2022/04/10 04:19:16;;;;;;;19.35;12.98;;;;;;;-1.10;100.00;101752.56;5342814;27;20042;-63
2022/04/10 04:21:47;;;;;;;20.38;12.90;;;;;;;-1.13;100.00;101760.47;5344760;27;20064;-63
2022/04/10 04:24:18;;;;;;;21.13;13.02;;;;;;;-1.11;100.00;101766.56;5357384;27;20035;-63
2022/04/10 04:26:49;;;;;;;22.55;13.98;;;;;;;-1.16;100.00;101762.28;5346913;27;20034;-63
2022/04/10 04:29:21;;;;;;;19.73;11.98;;;;;;;-1.13;100.00;101762.22;5343539;27;20045;-63
2022/04/10 04:31:52;;;;;;;18.55;12.10;;;;;;;-1.17;100.00;101761.38;5340533;27;20492;-63
2022/04/10 04:34:23;;;;;;;23.70;12.95;;;;;;;-1.19;100.00;101766.66;5344053;27;20543;-63
2022/04/10 04:36:55;;;;;;;18.98;12.48;;;;;;;-1.20;100.00;101767.53;5343519;27;20054;-63
2022/04/10 04:39:26;;;;;;;21.05;12.77;;;;;;;-1.21;100.00;101775.41;5345997;27;20509;-63
2022/04/10 04:41:57;;;;;;;18.73;12.63;;;;;;;-1.23;100.00;101770.22;5341956;27;20070;-63
2022/04/10 04:44:30;;;;;;;19.83;11.90;;;;;;;-1.21;100.00;101759.69;5344478;27;20418;-63
2022/04/10 04:47:02;;;;;;;19.77;12.25;;;;;;;-1.25;100.00;101768.47;5346517;27;20031;-63
2022/04/10 04:49:33;;;;;;;18.90;11.43;;;;;;;-1.26;100.00;101766.75;5355248;27;20031;-63
2022/04/10 04:52:05;;;;;;;23.48;11.38;;;;;;;-1.14;100.00;101773.59;5348318;27;20056;-63
2022/04/10 04:54:36;;;;;;;19.67;11.38;;;;;;;-1.23;100.00;101785.03;5349429;27;20026;-63
2022/04/10 04:57:07;;;;;;;20.15;11.65;;;;;;;-1.28;100.00;101769.41;5346714;27;20023;-63
2022/04/10 04:59:39;;;;;;;19.67;10.95;;;;;;;-1.21;100.00;101780.66;5348205;27;20399;-63
2022/04/10 05:02:11;;;;;;;20.75;11.20;;;;;;;-1.27;100.00;101776.34;5342800;27;20023;-63
2022/04/10 05:04:42;;;;;;;22.65;11.75;;;;;;;-1.22;100.00;101779.78;5347690;27;20621;-63
2022/04/10 05:07:13;;;;;;;20.30;11.15;;;;;;;-1.27;100.00;101778.97;5354482;27;20085;-63
2022/04/10 05:09:45;;;;;;;17.30;11.23;;;;;;;-1.27;100.00;101785.97;5350322;27;20380;-63
2022/04/10 05:12:16;;;;;;;17.33;11.32;;;;;;;-1.16;100.00;101791.09;5355543;27;20030;-63
2022/04/10 05:14:47;;;;;;;24.65;11.68;;;;;;;-1.23;100.00;101791.16;5355121;27;20062;-63
2022/04/10 05:17:18;;;;;;;18.42;11.18;;;;;;;-1.27;100.00;101799.06;5353524;27;20357;-63
2022/04/10 05:19:50;;;;;;;16.67;11.05;;;;;;;-1.15;100.00;101795.41;5357157;27;20015;-63
2022/04/10 05:22:21;;;;;;;22.20;11.05;;;;;;;-1.24;100.00;101801.66;5353801;27;20581;-63
2022/04/10 05:24:52;;;;;;;18.10;10.48;;;;;;;-1.19;100.00;101803.31;5356410;27;20018;-63
2022/04/10 05:27:25;;;;;;;19.77;11.15;;;;;;;-1.20;100.00;101798.09;5356307;27;20054;-63
2022/04/10 05:29:56;;;;;;;21.92;11.07;;;;;;;-1.14;100.00;101803.25;5354722;27;20560;-63
2022/04/10 05:32:27;;;;;;;22.13;11.35;;;;;;;-1.07;100.00;101809.31;5353371;27;21212;-63
2022/04/10 05:34:58;;;;;;;20.55;11.18;;;;;;;-1.07;100.00;101817.16;5356350;27;20030;-63
2022/04/10 05:37:30;;;;;;;17.52;10.57;;;;;;;-1.03;100.00;101819.69;5351505;27;20022;-63
2022/04/10 05:40:02;;;;;;;20.27;12.23;;;;;;;-1.02;100.00;101818.84;5355594;27;20385;-63
2022/04/10 05:42:43;;;;;;;20.15;11.85;;;;;;;-0.94;100.00;101818.75;5358161;27;20031;-63
2022/04/10 05:45:15;;;;;;;19.10;11.38;;;;;;;-0.95;100.00;101819.59;5352713;27;20492;-63
2022/04/10 05:47:46;;;;;;;16.75;10.38;;;;;;;-0.92;100.00;101819.56;5355750;27;20079;-63
2022/04/10 05:50:17;;;;;;;19.15;10.80;;;;;;;-0.84;100.00;101829.97;5353832;27;20023;-63
2022/04/10 05:52:51;;;;;;;20.92;11.80;;;;;;;-0.79;100.00;101822.88;5351875;27;20025;-63
2022/04/10 05:55:23;;;;;;;19.83;10.63;;;;;;;-0.75;100.00;101836.81;5353699;27;20030;-63
2022/04/10 05:57:54;;;;;;;20.30;10.32;;;;;;;-0.69;100.00;101836.72;5357565;27;20030;-63
2022/04/10 06:00:25;;;;;;;18.15;10.27;;;;;;;-0.64;100.00;101841.00;5355314;27;20428;-63
2022/04/10 06:03:01;;;;;;;19.15;9.95;;;;;;;-0.59;100.00;101840.97;5352743;27;20031;-63
2022/04/10 06:05:32;;;;;;;19.77;10.50;;;;;;;-0.48;100.00;101856.53;5353101;27;20457;-63
2022/04/10 06:08:04;;;;;;;21.35;10.57;;;;;;;-0.41;100.00;101855.56;5353813;27;20042;-63
2022/04/10 06:10:36;;;;;;;18.17;10.20;;;;;;;-0.33;100.00;101855.44;5354524;27;20027;-63
2022/04/10 06:13:10;;;;;;;21.20;10.30;;;;;;;-0.28;100.00;101851.84;5353759;27;20019;-63
2022/04/10 06:15:42;;;;;;;19.85;11.40;;;;;;;-0.18;100.00;101856.97;5355079;27;20114;-63
2022/04/10 06:18:13;;;;;;;18.10;10.65;;;;;;;-0.09;100.00;101859.44;5356501;27;20390;-63
2022/04/10 06:20:44;;;;;;;19.08;10.77;;;;;;;-0.04;100.00;101860.22;5354181;27;20031;-63
2022/04/10 06:23:15;;;;;;;19.35;10.35;;;;;;;0.04;100.00;101871.50;5350578;27;20037;-63
2022/04/10 06:25:47;;;;;;;19.90;10.93;;;;;;;0.16;100.00;101878.28;5354645;27;20029;-63
2022/04/10 06:28:18;;;;;;;27.70;12.52;;;;;;;0.30;100.00;101876.28;5356454;27;20107;-63
2022/04/10 06:30:49;;;;;;;21.75;11.85;;;;;;;0.32;100.00;101881.50;5352159;27;20014;-63
2022/04/10 06:33:21;;;;;;;22.80;11.27;;;;;;;0.42;100.00;101876.97;5354291;27;20031;-63
2022/04/10 06:35:54;;;;;;;23.27;12.15;;;;;;;0.54;100.00;101882.88;5354658;27;20019;-64
2022/04/10 06:38:25;;;;;;;22.08;12.80;;;;;;;0.70;100.00;101887.84;5351887;27;20063;-63
2022/04/10 06:40:56;;;;;;;23.42;13.10;;;;;;;0.84;100.00;101891.06;5352884;27;20117;-63
2022/04/10 06:43:27;;;;;;;26.52;12.98;;;;;;;1.02;100.00;101884.59;5352265;27;20025;-64
2022/04/10 06:45:59;;;;;;;27.02;13.60;;;;;;;1.20;100.00;101883.34;5352625;27;20087;-63
2022/04/10 06:48:31;;;;;;;23.85;13.20;;;;;;;1.33;100.00;101882.19;5331754;27;20609;-63
2022/04/10 06:51:03;;;;;;;20.85;12.55;;;;;;;1.39;100.00;101886.47;5355637;27;20026;-63
2022/04/10 06:53:34;;;;;;;20.45;12.88;;;;;;;1.59;100.00;101891.25;5351244;27;20034;-64
2022/04/10 06:56:05;;;;;;;19.35;11.82;;;;;;;1.67;100.00;101899.88;5350851;27;20689;-64
2022/04/10 06:58:37;;;;;;;22.05;11.05;;;;;;;1.89;100.00;101889.72;5352043;27;20042;-63
2022/04/10 07:01:08;;;;;;;20.45;11.35;;;;;;;2.03;100.00;101893.78;5348416;27;20098;-64
2022/04/10 07:03:39;;;;;;;17.15;10.10;;;;;;;2.28;100.00;101902.81;5354061;27;20058;-64
2022/04/10 07:06:11;;;;;;;16.02;9.32;;;;;;;2.37;100.00;101904.34;5356465;27;20544;-64
2022/04/10 07:08:42;;;;;;;20.02;9.18;;;;;;;2.52;100.00;101905.75;5351112;27;20100;-64
2022/04/10 07:11:13;;;;;;;18.13;9.88;;;;;;;2.58;100.00;101905.56;5349555;27;20039;-64
2022/04/10 07:13:45;;;;;;;15.60;9.30;;;;;;;2.68;100.00;101919.38;5353023;27;20095;-64
2022/04/10 07:16:16;;;;;;;20.50;10.88;;;;;;;2.81;100.00;101917.28;5351322;27;20057;-64
2022/04/10 07:18:47;;;;;;;15.32;9.18;;;;;;;2.99;100.00;101914.13;5354762;27;20037;-64
2022/04/10 07:23:41;;;;;;;20.77;10.30;;;;;;;3.01;100.00;101907.06;5354976;27;20026;-64
2022/04/10 07:24:10;;;;;;;16.33;8.93;;;;;;;3.14;100.00;101913.72;5352194;27;20418;-64
2022/04/10 07:26:41;;;;;;;13.45;8.77;;;;;;;3.33;100.00;101910.53;5351817;27;20035;-64
2022/04/10 07:29:12;;;;;;;18.75;9.45;;;;;;;3.42;100.00;101912.91;5351131;27;20034;-64
2022/04/10 07:31:44;;;;;;;16.67;9.52;;;;;;;3.55;100.00;101918.69;5351880;27;20287;-64
2022/04/10 07:34:15;;;;;;;19.02;9.32;;;;;;;3.64;100.00;101918.41;5352332;27;20058;-64
2022/04/10 07:36:46;;;;;;;17.63;9.23;;;;;;;3.79;100.00;101918.84;5352988;27;20038;-64
2022/04/10 07:39:17;;;;;;;13.52;8.23;;;;;;;3.89;100.00;101928.22;5350948;27;20034;-64
2022/04/10 07:41:49;;;;;;;17.50;7.90;;;;;;;4.04;100.00;101927.72;5352363;27;20059;-64
2022/04/10 07:44:20;;;;;;;15.48;8.10;;;;;;;4.16;100.00;101930.91;5349302;27;20031;-64
2022/04/10 07:49:41;;;;;;;13.93;6.03;;;;;;;4.41;99.50;101937.13;5350340;27;20613;-64
2022/04/10 07:52:12;;;;;;;13.75;6.13;;;;;;;4.54;97.50;101944.63;5352867;27;20117;-64
2022/04/10 07:54:44;;;;;;;13.65;6.72;;;;;;;4.74;97.38;101943.94;5348618;27;20041;-64
2022/04/10 07:57:16;;;;;;;9.55;5.18;;;;;;;4.94;96.51;101943.25;5352288;27;20068;-64
2022/04/10 07:59:47;;;;;;;11.25;5.55;;;;;;;4.97;95.25;101948.47;5350267;27;20035;-64
2022/04/10 08:02:18;;;;;;;9.10;4.43;;;;;;;4.99;95.19;101954.56;5348643;27;20578;-64
2022/04/10 08:04:50;;;;;;;11.07;4.78;;;;;;;5.17;94.34;101956.53;5351787;27;20543;-64
2022/04/10 08:07:21;;;;;;;14.43;5.40;;;;;;;5.28;92.39;101953.50;5348949;27;20042;-64
2022/04/10 08:09:53;;;;;;;11.27;4.93;;;;;;;5.41;92.12;101965.38;5348954;27;21203;-64
2022/04/10 08:12:25;;;;;;;13.02;5.10;;;;;;;5.67;90.08;101964.38;5355937;27;20081;-64
2022/04/10 08:14:56;;;;;;;14.45;4.47;;;;;;;5.78;90.00;101965.75;5358439;27;20514;-64
2022/04/10 08:17:27;;;;;;;8.93;3.53;;;;;;;5.95;84.58;101970.41;5357700;27;20053;-64
2022/04/10 08:19:59;;;;;;;7.47;3.65;;;;;;;6.09;84.41;101973.41;5346215;27;20141;-64
2022/04/10 08:22:32;;;;;;;10.05;3.85;;;;;;;6.35;84.42;101968.81;5354859;27;20109;-64
2022/04/10 08:25:09;;;;;;;9.95;4.10;;;;;;;6.62;81.36;101967.72;5349633;27;20094;-64
2022/04/10 08:27:41;;;;;;;6.30;3.67;;;;;;;6.83;80.68;101973.91;5362204;27;20029;-64
2022/04/10 08:30:12;;;;;;;7.85;3.25;;;;;;;6.99;78.76;101978.53;5360691;27;20343;-64
2022/04/10 08:32:44;;;;;;;6.60;2.25;;;;;;;7.19;77.68;101967.94;5352005;27;20027;-64
2022/04/10 08:35:15;;;;;;;8.07;2.55;;;;;;;7.44;74.81;101974.78;5352341;27;20466;-64
2022/04/10 08:37:46;;;;;;;5.65;2.22;;;;;;;7.58;72.52;101976.81;5353336;27;20065;-64
2022/04/10 08:40:19;;;;;;;7.78;2.08;;;;;;;7.54;70.41;101973.44;5360063;27;20058;-64
2022/04/10 08:42:53;;;;;;;10.15;2.60;;;;;;;7.55;70.43;101980.47;5358197;27;20026;-64
2022/04/10 08:45:25;;;;;;;6.13;2.13;;;;;;;7.46;69.89;101973.78;5357865;27;20113;-64
2022/04/10 08:47:57;;;;;;;5.47;1.77;;;;;;;7.45;70.43;101973.84;5355200;27;20042;-64
2022/04/10 08:50:29;;;;;;;7.65;2.20;;;;;;;7.37;69.84;101992.78;5348236;27;20462;-64
2022/04/10 08:53:02;;;;;;;10.23;2.25;;;;;;;7.38;71.10;101990.97;5359554;27;20034;-66
2022/04/10 08:55:33;;;;;;;10.45;2.58;;;;;;;7.31;71.33;101994.88;5353563;27;20018;-64
2022/04/10 08:58:05;;;;;;;8.88;2.75;;;;;;;7.29;72.21;101991.38;5365150;27;20022;-64
2022/04/10 09:00:36;;;;;;;11.00;3.08;;;;;;;7.37;73.59;101992.78;5360343;27;20129;-64
2022/04/10 09:03:08;;;;;;;10.60;3.92;;;;;;;7.41;73.80;101993.50;5355481;27;20405;-64
2022/04/10 09:05:42;;;;;;;8.15;2.83;;;;;;;7.37;74.10;101998.09;5364752;27;20066;-64
2022/04/10 09:08:14;;;;;;;;;;;;;;;7.44;75.80;101999.56;5357497;27;20018;-64
2022/04/10 09:10:52;;;;;;;7.00;2.92;;;;;;;7.25;75.78;102012.78;5360967;27;19917;-64
2022/04/10 09:13:46;;;;;;;11.25;2.90;;;;;;;7.18;75.60;102010.47;5353861;27;20083;-65
2022/04/10 09:16:21;;;;;;;7.10;3.40;;;;;;;7.24;73.92;102011.03;5350517;27;20472;-64
2022/04/10 09:18:56;;;;;;;10.77;2.90;;;;;;;7.26;74.86;102011.81;5363133;27;20376;-64
2022/04/10 09:21:30;;;;;;;10.40;2.65;;;;;;;7.22;73.42;102006.75;5349479;27;20506;-64
2022/04/10 09:24:01;;;;;;;8.82;2.70;;;;;;;7.38;74.71;102004.25;5359212;27;20090;-64
2022/04/10 09:26:45;;;;;;;12.13;2.97;;;;;;;7.32;71.37;102004.53;5356873;27;20416;-64
2022/04/10 09:29:18;;;;;;;8.80;2.58;;;;;;;7.37;73.23;102002.56;5362246;27;20062;-64
2022/04/10 09:31:52;;;;;;;7.95;2.55;;;;;;;7.57;73.41;101994.53;5359737;27;20037;-64
2022/04/10 09:34:25;;;;;;;5.65;2.30;;;;;;;7.79;72.00;101999.72;5366001;27;20026;-64
2022/04/10 09:37:01;;;;;;;5.13;2.28;;;;;;;7.77;70.09;102003.41;5357497;27;20053;-64
2022/04/10 09:39:35;;;;;;;7.85;2.15;;;;;;;7.84;66.89;102002.16;5357224;27;20035;-64
2022/04/10 09:42:09;;;;;;;6.72;2.75;;;;;;;7.90;66.96;101993.03;5362011;27;20094;-64
2022/04/10 09:44:40;;;;;;;7.03;2.50;;;;;;;7.89;66.77;101994.00;5358672;27;20076;-64
2022/04/10 09:47:11;;;;;;;6.82;2.20;;;;;;;8.03;65.41;101996.84;5359545;27;20030;-64
2022/04/10 09:49:43;;;;;;;5.47;1.50;;;;;;;8.09;61.18;101995.69;5352988;27;20015;-64
2022/04/10 09:52:17;;;;;;;5.35;1.98;;;;;;;8.28;62.04;102001.84;5352526;27;20333;-64
2022/04/10 09:54:50;;;;;;;5.10;1.70;;;;;;;8.13;60.24;101995.50;5362666;27;20055;-64
2022/04/10 09:57:22;;;;;;;6.55;1.70;;;;;;;8.26;60.92;101993.09;5348718;27;20053;-64
2022/04/10 09:59:54;;;;;;;5.50;1.48;;;;;;;8.32;58.22;101995.47;5353318;27;20400;-64
2022/04/10 10:02:26;;;;;;;4.82;1.60;;;;;;;8.53;56.75;101990.06;5353858;27;20115;-64
2022/04/10 10:04:58;;;;;;;4.30;1.60;;;;;;;8.52;57.88;101988.34;5356932;27;20019;-64
2022/04/10 10:07:29;;;;;;;6.15;1.67;;;;;;;8.86;60.93;101999.94;5350951;27;20053;-64
2022/04/10 10:10:01;;;;;;;5.20;1.40;;;;;;;9.06;57.88;101985.63;5357885;27;20101;-64
2022/04/10 10:12:34;;;;;;;7.28;1.50;;;;;;;9.13;56.74;101982.56;5360024;27;20045;-64
2022/04/10 10:15:06;;;;;;;6.72;1.83;;;;;;;9.34;57.24;101991.22;5359317;27;20115;-64
2022/04/10 10:17:37;;;;;;;7.20;1.77;;;;;;;9.47;60.35;101979.91;5359642;27;20493;-64
2022/04/10 10:20:10;;;;;;;5.45;1.52;;;;;;;9.41;57.51;101983.75;5332940;27;20026;-64
2022/04/10 10:22:42;;;;;;;8.05;1.90;;;;;;;9.46;57.22;101991.53;5350618;27;20110;-64
2022/04/10 10:25:24;;;;;;;5.15;1.50;;;;;;;9.41;56.48;101981.09;5355096;27;20060;-64
2022/04/10 10:28:14;;;;;;;7.72;1.90;;;;;;;9.37;55.91;101983.06;5361662;27;20027;-64
2022/04/10 10:31:20;;;;;;;5.22;2.00;;;;;;;9.36;57.34;101986.69;5346972;27;20107;-64
2022/04/10 10:33:54;;;;;;;5.38;1.75;;;;;;;9.24;53.18;101976.66;5355656;27;20039;-64
2022/04/10 10:36:27;;;;;;;6.40;2.10;;;;;;;9.20;52.34;101972.44;5347880;27;20078;-64
2022/04/10 10:38:58;;;;;;;8.02;1.80;;;;;;;9.26;53.83;101974.78;5358515;27;20488;-64
2022/04/10 10:41:32;;;;;;;5.50;1.40;;;;;;;9.28;53.79;101972.03;5360535;27;20022;-64
2022/04/10 10:44:25;;;;;;;4.47;1.50;;;;;;;9.27;55.92;101976.50;5338706;27;20018;-64
2022/04/10 10:47:02;;;;;;;4.15;1.50;;;;;;;9.28;55.10;101972.03;5355061;27;20038;-64
2022/04/10 10:49:47;;;;;;;6.72;1.80;;;;;;;9.22;55.30;101978.53;5350470;27;20120;-64
2022/04/10 10:52:19;;;;;;;;;;;;;;;9.25;56.27;101977.53;5355366;27;20031;-64
2022/04/10 10:54:52;;;;;;;6.63;2.00;;;;;;;9.24;56.81;101971.34;5356326;27;19938;-64
2022/04/10 10:57:31;;;;;;;6.28;1.60;;;;;;;9.27;55.64;101973.84;5357325;27;20068;-64
2022/04/10 11:00:09;;;;;;;5.45;1.83;;;;;;;9.49;53.69;101976.25;5350804;27;20117;-64
2022/04/10 11:02:48;;;;;;;6.30;1.60;;;;;;;9.56;55.65;101972.28;5354238;27;20102;-64
2022/04/10 11:05:25;;;;;;;5.45;1.70;;;;;;;9.67;55.45;101979.69;5353774;27;20153;-64
2022/04/10 11:08:06;;;;;;;6.80;1.80;;;;;;;9.75;52.42;101974.81;5352276;27;20317;-64
2022/04/10 11:10:50;;;;;;;5.72;1.67;;;;;;;9.76;53.54;101963.22;5351089;27;20123;-64
2022/04/10 11:13:21;;;;;;;4.90;2.20;;;;;;;9.99;53.98;101967.25;5356255;27;20037;-65
2022/04/10 11:15:53;;;;;;;6.90;1.90;;;;;;;9.95;51.24;101971.06;5357579;27;20472;-64
2022/04/10 11:18:35;;;;;;;7.20;1.80;;;;;;;9.93;53.78;101969.41;5348762;27;20042;-64
2022/04/10 11:21:16;;;;;;;5.75;1.88;;;;;;;9.80;50.86;101972.75;5353984;27;20050;-64
2022/04/10 11:23:48;;;;;;;6.88;1.60;;;;;;;9.69;53.69;101979.63;5354761;27;20026;-64
2022/04/10 11:26:20;;;;;;;5.70;1.60;;;;;;;9.69;51.87;101974.28;5356373;27;20063;-64
2022/04/10 11:29:04;;;;;;;4.90;1.85;;;;;;;9.61;51.10;101970.25;5353287;27;20085;-64
2022/04/10 11:31:40;;;;;;;4.53;1.67;;;;;;;9.56;51.14;101966.94;5355339;27;20026;-64
2022/04/10 11:34:12;;;;;;;6.10;2.35;;;;;;;9.55;51.24;101965.25;5357257;27;20103;-64
2022/04/10 11:36:44;;;;;;;5.50;1.75;;;;;;;9.51;51.87;101962.81;5358489;27;20027;-64
2022/04/10 11:39:16;;;;;;;5.15;1.80;;;;;;;9.60;50.79;101959.66;5352485;27;20030;-64
2022/04/10 11:41:48;;;;;;;6.32;1.80;;;;;;;9.73;52.26;101962.53;5352381;27;20377;-64